sensor_id;sensor_type;location;lat;lon;timestamp;pressure;altitude;pressure_sealevel;temperature;humidity
68654;BME280;55636;51.108;13.622;2022-09-27T00:00:31;98565.31;;;11.38;55.42
68654;BME280;55636;51.108;13.622;2022-09-27T00:01:33;98566.97;;;11.39;55.34
68654;BME280;55636;51.108;13.622;2022-09-27T00:02:35;98565.84;;;11.40;55.26
68654;BME280;55636;51.108;13.622;2022-09-27T00:03:38;98563.09;;;11.40;55.45
68654;BME280;55636;51.108;13.622;2022-09-27T00:04:40;98562.25;;;11.40;55.35
68654;BME280;55636;51.108;13.622;2022-09-27T00:05:42;98566.66;;;11.41;55.46
68654;BME280;55636;51.108;13.622;2022-09-27T00:06:47;98567.47;;;11.41;55.46
68654;BME280;55636;51.108;13.622;2022-09-27T00:07:50;98555.59;;;11.41;55.25
68654;BME280;55636;51.108;13.622;2022-09-27T00:08:52;98559.16;;;11.41;55.39
68654;BME280;55636;51.108;13.622;2022-09-27T00:09:55;98555.28;;;11.42;55.30
68654;BME280;55636;51.108;13.622;2022-09-27T00:10:59;98556.41;;;11.41;55.60
68654;BME280;55636;51.108;13.622;2022-09-27T00:12:02;98548.13;;;11.41;55.39
68654;BME280;55636;51.108;13.622;2022-09-27T00:13:04;98544.53;;;11.41;55.61
68654;BME280;55636;51.108;13.622;2022-09-27T00:14:07;98545.06;;;11.43;55.44
68654;BME280;55636;51.108;13.622;2022-09-27T00:15:10;98535.94;;;11.42;55.30
68654;BME280;55636;51.108;13.622;2022-09-27T00:16:12;98530.41;;;11.42;55.30
68654;BME280;55636;51.108;13.622;2022-09-27T00:17:14;98535.66;;;11.44;54.84
68654;BME280;55636;51.108;13.622;2022-09-27T00:18:16;98535.66;;;11.44;54.71
68654;BME280;55636;51.108;13.622;2022-09-27T00:19:28;98527.34;;;11.44;54.43
68654;BME280;55636;51.108;13.622;2022-09-27T00:20:30;98535.34;;;11.45;54.29
68654;BME280;55636;51.108;13.622;2022-09-27T00:21:32;98533.09;;;11.47;54.26
68654;BME280;55636;51.108;13.622;2022-09-27T00:22:35;98528.38;;;11.48;53.84
68654;BME280;55636;51.108;13.622;2022-09-27T00:23:38;98531.66;;;11.50;53.76
68654;BME280;55636;51.108;13.622;2022-09-27T00:24:40;98531.66;;;11.50;53.58
68654;BME280;55636;51.108;13.622;2022-09-27T00:25:53;98528.25;;;11.53;53.39
68654;BME280;55636;51.108;13.622;2022-09-27T00:26:56;98518.34;;;11.52;53.18
68654;BME280;55636;51.108;13.622;2022-09-27T00:27:58;98524.69;;;11.52;53.21
68654;BME280;55636;51.108;13.622;2022-09-27T00:29:00;98525.19;;;11.55;53.10
68654;BME280;55636;51.108;13.622;2022-09-27T00:30:03;98522.91;;;11.57;52.92
68654;BME280;55636;51.108;13.622;2022-09-27T00:31:26;98515.16;;;11.59;52.88
68654;BME280;55636;51.108;13.622;2022-09-27T00:32:30;98520.34;;;11.60;52.63
68654;BME280;55636;51.108;13.622;2022-09-27T00:33:33;98523.63;;;11.62;52.59
68654;BME280;55636;51.108;13.622;2022-09-27T00:34:35;98528.00;;;11.63;52.40
68654;BME280;55636;51.108;13.622;2022-09-27T00:35:38;98511.13;;;11.65;52.27
68654;BME280;55636;51.108;13.622;2022-09-27T00:36:41;98518.00;;;11.67;52.33
68654;BME280;55636;51.108;13.622;2022-09-27T00:37:47;98516.53;;;11.70;52.32
68654;BME280;55636;51.108;13.622;2022-09-27T00:38:49;98513.47;;;11.72;52.16
68654;BME280;55636;51.108;13.622;2022-09-27T00:39:51;98515.06;;;11.73;52.16
68654;BME280;55636;51.108;13.622;2022-09-27T00:40:59;98509.25;;;11.74;51.90
68654;BME280;55636;51.108;13.622;2022-09-27T00:42:02;98510.56;;;11.77;51.91
68654;BME280;55636;51.108;13.622;2022-09-27T00:43:14;98508.28;;;11.79;52.03
68654;BME280;55636;51.108;13.622;2022-09-27T00:45:25;98503.75;;;11.83;51.96
68654;BME280;55636;51.108;13.622;2022-09-27T00:46:45;98503.16;;;11.86;52.02
68654;BME280;55636;51.108;13.622;2022-09-27T00:47:53;98500.88;;;11.88;51.82
68654;BME280;55636;51.108;13.622;2022-09-27T00:49:06;98493.91;;;11.91;51.98
68654;BME280;55636;51.108;13.622;2022-09-27T00:51:32;98491.00;;;11.96;51.50
68654;BME280;55636;51.108;13.622;2022-09-27T00:52:58;98488.25;;;11.96;51.88
68654;BME280;55636;51.108;13.622;2022-09-27T00:54:03;98478.16;;;12.00;51.80
68654;BME280;55636;51.108;13.622;2022-09-27T00:55:18;98485.34;;;12.01;51.65
68654;BME280;55636;51.108;13.622;2022-09-27T00:56:28;98477.56;;;12.03;51.49
68654;BME280;55636;51.108;13.622;2022-09-27T00:57:31;98477.22;;;12.05;51.68
68654;BME280;55636;51.108;13.622;2022-09-27T00:58:50;98477.75;;;12.07;51.58
68654;BME280;55636;51.108;13.622;2022-09-27T00:59:59;98476.28;;;12.09;51.50
68654;BME280;55636;51.108;13.622;2022-09-27T01:01:06;98472.38;;;12.10;51.63
68654;BME280;55636;51.108;13.622;2022-09-27T01:02:11;98470.13;;;12.12;51.41
68654;BME280;55636;51.108;13.622;2022-09-27T01:03:22;98470.91;;;12.13;51.52
68654;BME280;55636;51.108;13.622;2022-09-27T01:04:28;98470.31;;;12.16;51.42
68654;BME280;55636;51.108;13.622;2022-09-27T01:05:31;98467.53;;;12.16;51.23
68654;BME280;55636;51.108;13.622;2022-09-27T01:06:34;98463.13;;;12.15;51.30
68654;BME280;55636;51.108;13.622;2022-09-27T01:07:37;98461.69;;;12.17;51.46
68654;BME280;55636;51.108;13.622;2022-09-27T01:08:39;98456.16;;;12.17;51.37
68654;BME280;55636;51.108;13.622;2022-09-27T01:09:42;98466.09;;;12.18;51.24
68654;BME280;55636;51.108;13.622;2022-09-27T01:10:53;98463.31;;;12.18;51.28
68654;BME280;55636;51.108;13.622;2022-09-27T01:12:22;98461.88;;;12.21;51.18
68654;BME280;55636;51.108;13.622;2022-09-27T01:13:34;98450.47;;;12.23;51.12
68654;BME280;55636;51.108;13.622;2022-09-27T01:15:22;98444.63;;;12.24;51.03
68654;BME280;55636;51.108;13.622;2022-09-27T01:20:54;98441.72;;;12.29;51.15
68654;BME280;55636;51.108;13.622;2022-09-27T01:30:20;98443.22;;;12.35;51.25
68654;BME280;55636;51.108;13.622;2022-09-27T01:31:29;98435.72;;;12.36;51.20
68654;BME280;55636;51.108;13.622;2022-09-27T01:34:37;98440.13;;;12.37;50.88
68654;BME280;55636;51.108;13.622;2022-09-27T01:35:57;98428.25;;;12.37;51.12
68654;BME280;55636;51.108;13.622;2022-09-27T01:37:14;98431.81;;;12.37;51.02
68654;BME280;55636;51.108;13.622;2022-09-27T01:38:34;98429.03;;;12.37;50.98
68654;BME280;55636;51.108;13.622;2022-09-27T01:39:50;98428.72;;;12.39;51.15
68654;BME280;55636;51.108;13.622;2022-09-27T01:41:20;98424.00;;;12.39;51.17
68654;BME280;55636;51.108;13.622;2022-09-27T01:42:57;98424.00;;;12.39;50.95
68654;BME280;55636;51.108;13.622;2022-09-27T01:45:42;98420.41;;;12.39;51.06
68654;BME280;55636;51.108;13.622;2022-09-27T01:46:55;98415.72;;;12.39;51.04
68654;BME280;55636;51.108;13.622;2022-09-27T01:48:23;98412.94;;;12.39;50.97
68654;BME280;55636;51.108;13.622;2022-09-27T01:49:55;98415.72;;;12.39;51.02
68654;BME280;55636;51.108;13.622;2022-09-27T01:51:14;98410.97;;;12.40;51.11
68654;BME280;55636;51.108;13.622;2022-09-27T01:52:23;98410.97;;;12.40;51.36
68654;BME280;55636;51.108;13.622;2022-09-27T01:53:36;98417.31;;;12.40;51.03
68654;BME280;55636;51.108;13.622;2022-09-27T01:55:03;98414.56;;;12.40;51.07
68654;BME280;55636;51.108;13.622;2022-09-27T01:56:36;98407.41;;;12.39;50.89
68654;BME280;55636;51.108;13.622;2022-09-27T01:57:54;98410.97;;;12.40;50.91
68654;BME280;55636;51.108;13.622;2022-09-27T01:59:12;98409.00;;;12.40;51.03
68654;BME280;55636;51.108;13.622;2022-09-27T02:00:23;98409.00;;;12.40;50.93
68654;BME280;55636;51.108;13.622;2022-09-27T02:01:27;98404.63;;;12.39;51.15
68654;BME280;55636;51.108;13.622;2022-09-27T02:02:38;98404.31;;;12.41;51.01
68654;BME280;55636;51.108;13.622;2022-09-27T02:04:12;98405.09;;;12.41;51.12
68654;BME280;55636;51.108;13.622;2022-09-27T02:05:42;98401.88;;;12.39;51.24
68654;BME280;55636;51.108;13.622;2022-09-27T02:07:11;98400.22;;;12.38;50.97
68654;BME280;55636;51.108;13.622;2022-09-27T02:08:24;98397.13;;;12.40;51.03
68654;BME280;55636;51.108;13.622;2022-09-27T02:09:38;98400.69;;;12.40;50.91
68654;BME280;55636;51.108;13.622;2022-09-27T02:10:53;98395.50;;;12.39;50.80
68654;BME280;55636;51.108;13.622;2022-09-27T02:12:02;98402.66;;;12.40;50.83
68654;BME280;55636;51.108;13.622;2022-09-27T02:13:21;98388.03;;;12.39;50.78
68654;BME280;55636;51.108;13.622;2022-09-27T02:14:52;98395.50;;;12.39;50.69
68654;BME280;55636;51.108;13.622;2022-09-27T02:16:10;98393.56;;;12.39;50.67
68654;BME280;55636;51.108;13.622;2022-09-27T02:17:29;98394.69;;;12.38;50.69
68654;BME280;55636;51.108;13.622;2022-09-27T02:18:39;98389.97;;;12.39;50.98
68654;BME280;55636;51.108;13.622;2022-09-27T02:19:52;98389.63;;;12.40;50.85
68654;BME280;55636;51.108;13.622;2022-09-27T02:21:04;98392.41;;;12.40;50.74
68654;BME280;55636;51.108;13.622;2022-09-27T02:23:42;98385.72;;;12.41;50.71
68654;BME280;55636;51.108;13.622;2022-09-27T02:24:53;98376.63;;;12.41;50.94
68654;BME280;55636;51.108;13.622;2022-09-27T02:26:14;98376.28;;;12.42;50.60
68654;BME280;55636;51.108;13.622;2022-09-27T02:27:28;98371.09;;;12.41;50.83
68654;BME280;55636;51.108;13.622;2022-09-27T02:28:46;98369.94;;;12.42;50.74
68654;BME280;55636;51.108;13.622;2022-09-27T02:30:02;98368.78;;;12.43;50.64
68654;BME280;55636;51.108;13.622;2022-09-27T02:31:08;98366.84;;;12.43;50.73
68654;BME280;55636;51.108;13.622;2022-09-27T02:32:12;98354.94;;;12.43;50.74
68654;BME280;55636;51.108;13.622;2022-09-27T02:33:14;98363.25;;;12.43;50.52
68654;BME280;55636;51.108;13.622;2022-09-27T02:34:20;98365.69;;;12.44;50.76
68654;BME280;55636;51.108;13.622;2022-09-27T02:35:27;98364.09;;;12.43;50.72
68654;BME280;55636;51.108;13.622;2022-09-27T02:36:32;98358.56;;;12.43;50.79
68654;BME280;55636;51.108;13.622;2022-09-27T02:37:34;98361.31;;;12.43;50.76
68654;BME280;55636;51.108;13.622;2022-09-27T02:38:36;98359.34;;;12.44;50.63
68654;BME280;55636;51.108;13.622;2022-09-27T02:39:39;98356.59;;;12.44;50.57
68654;BME280;55636;51.108;13.622;2022-09-27T02:40:45;98353.81;;;12.44;50.65
68654;BME280;55636;51.108;13.622;2022-09-27T02:41:48;98353.81;;;12.44;50.65
68654;BME280;55636;51.108;13.622;2022-09-27T02:42:51;98350.25;;;12.43;50.86
68654;BME280;55636;51.108;13.622;2022-09-27T02:43:57;98355.28;;;12.41;50.76
68654;BME280;55636;51.108;13.622;2022-09-27T02:45:04;98354.16;;;12.42;50.83
68654;BME280;55636;51.108;13.622;2022-09-27T02:46:22;98351.38;;;12.42;50.91
68654;BME280;55636;51.108;13.622;2022-09-27T02:48:00;98353.31;;;12.42;50.95
68654;BME280;55636;51.108;13.622;2022-09-27T02:51:26;98346.97;;;12.41;50.97
68654;BME280;55636;51.108;13.622;2022-09-27T02:53:18;98348.94;;;12.41;50.94
68654;BME280;55636;51.108;13.622;2022-09-27T02:54:15;98342.56;;;12.40;51.07
68654;BME280;55636;51.108;13.622;2022-09-27T02:56:23;98339.00;;;12.40;51.16
68654;BME280;55636;51.108;13.622;2022-09-27T02:59:44;98329.88;;;12.39;51.06
68654;BME280;55636;51.108;13.622;2022-09-27T03:02:58;98345.66;;;12.39;51.53
68654;BME280;55636;51.108;13.622;2022-09-27T03:05:45;98336.03;;;12.36;51.43
68654;BME280;55636;51.108;13.622;2022-09-27T03:06:51;98343.53;;;12.35;51.77
68654;BME280;55636;51.108;13.622;2022-09-27T03:07:57;98338.81;;;12.36;51.57
68654;BME280;55636;51.108;13.622;2022-09-27T03:09:00;98328.88;;;12.35;51.73
68654;BME280;55636;51.108;13.622;2022-09-27T03:10:03;98322.53;;;12.34;51.77
68654;BME280;55636;51.108;13.622;2022-09-27T03:11:06;98325.63;;;12.33;51.74
68654;BME280;55636;51.108;13.622;2022-09-27T03:12:09;98328.41;;;12.33;51.76
68654;BME280;55636;51.108;13.622;2022-09-27T03:13:11;98322.84;;;12.33;52.08
68654;BME280;55636;51.108;13.622;2022-09-27T03:14:16;98330.66;;;12.31;52.27
68654;BME280;55636;51.108;13.622;2022-09-27T03:15:34;98331.78;;;12.30;52.30
68654;BME280;55636;51.108;13.622;2022-09-27T03:16:36;98325.13;;;12.31;52.22
68654;BME280;55636;51.108;13.622;2022-09-27T03:18:15;98320.72;;;12.30;52.62
68654;BME280;55636;51.108;13.622;2022-09-27T03:19:20;98323.47;;;12.30;52.49
68654;BME280;55636;51.108;13.622;2022-09-27T03:20:45;98318.78;;;12.30;52.82
68654;BME280;55636;51.108;13.622;2022-09-27T03:21:53;98318.78;;;12.30;52.97
68654;BME280;55636;51.108;13.622;2022-09-27T03:22:55;98322.34;;;12.31;53.20
68654;BME280;55636;51.108;13.622;2022-09-27T03:23:57;98319.91;;;12.29;53.15
68654;BME280;55636;51.108;13.622;2022-09-27T03:25:02;98318.28;;;12.28;53.31
68654;BME280;55636;51.108;13.622;2022-09-27T03:26:05;98324.13;;;12.27;53.35
68654;BME280;55636;51.108;13.622;2022-09-27T03:27:14;98324.47;;;12.25;53.51
68654;BME280;55636;51.108;13.622;2022-09-27T03:28:16;98322.81;;;12.24;53.70
68654;BME280;55636;51.108;13.622;2022-09-27T03:29:19;98321.19;;;12.23;53.78
68654;BME280;55636;51.108;13.622;2022-09-27T03:30:26;98322.31;;;12.22;53.91
68654;BME280;55636;51.108;13.622;2022-09-27T03:31:28;98316.78;;;12.22;53.78
68654;BME280;55636;51.108;13.622;2022-09-27T03:32:50;98315.19;;;12.21;54.21
68654;BME280;55636;51.108;13.622;2022-09-27T03:34:10;98318.25;;;12.19;54.23
68654;BME280;55636;51.108;13.622;2022-09-27T03:35:13;98315.47;;;12.19;54.12
68654;BME280;55636;51.108;13.622;2022-09-27T03:36:15;98319.41;;;12.18;54.30
68654;BME280;55636;51.108;13.622;2022-09-27T03:37:17;98309.13;;;12.19;54.73
68654;BME280;55636;51.108;13.622;2022-09-27T03:38:23;98313.03;;;12.18;54.80
68654;BME280;55636;51.108;13.622;2022-09-27T03:39:25;98314.19;;;12.17;54.80
68654;BME280;55636;51.108;13.622;2022-09-27T03:40:28;98308.97;;;12.15;54.95
68654;BME280;55636;51.108;13.622;2022-09-27T03:41:30;98313.69;;;12.15;55.24
68654;BME280;55636;51.108;13.622;2022-09-27T03:42:33;98315.66;;;12.14;55.32
68654;BME280;55636;51.108;13.622;2022-09-27T03:43:35;98319.53;;;12.13;55.22
68654;BME280;55636;51.108;13.622;2022-09-27T03:44:38;98309.59;;;12.12;55.32
68654;BME280;55636;51.108;13.622;2022-09-27T03:45:42;98306.84;;;12.12;55.67
68654;BME280;55636;51.108;13.622;2022-09-27T03:46:46;98305.19;;;12.11;55.67
68654;BME280;55636;51.108;13.622;2022-09-27T03:47:48;98300.00;;;12.10;55.56
68654;BME280;55636;51.108;13.622;2022-09-27T03:48:50;98302.75;;;12.10;55.71
68654;BME280;55636;51.108;13.622;2022-09-27T03:49:53;98297.56;;;12.08;55.96
68654;BME280;55636;51.108;13.622;2022-09-27T03:50:56;98297.56;;;12.08;55.85
68654;BME280;55636;51.108;13.622;2022-09-27T03:51:58;98295.91;;;12.07;56.00
68654;BME280;55636;51.108;13.622;2022-09-27T03:53:00;98285.97;;;12.06;56.17
68654;BME280;55636;51.108;13.622;2022-09-27T03:54:02;98292.63;;;12.05;56.40
68654;BME280;55636;51.108;13.622;2022-09-27T03:55:05;98290.72;;;12.06;56.43
68654;BME280;55636;51.108;13.622;2022-09-27T03:56:08;98278.34;;;12.03;56.66
68654;BME280;55636;51.108;13.622;2022-09-27T03:57:11;98289.41;;;12.03;56.74
68654;BME280;55636;51.108;13.622;2022-09-27T03:58:14;98285.00;;;12.02;56.80
68654;BME280;55636;51.108;13.622;2022-09-27T03:59:16;98284.19;;;12.01;56.85
68654;BME280;55636;51.108;13.622;2022-09-27T04:00:38;98287.25;;;12.00;56.69
68654;BME280;55636;51.108;13.622;2022-09-27T04:01:42;98288.41;;;11.99;56.85
68654;BME280;55636;51.108;13.622;2022-09-27T04:03:06;98270.19;;;11.98;57.00
68654;BME280;55636;51.108;13.622;2022-09-27T04:04:23;98278.81;;;11.96;57.29
68654;BME280;55636;51.108;13.622;2022-09-27T04:05:27;98264.47;;;11.94;57.08
68654;BME280;55636;51.108;13.622;2022-09-27T04:06:40;98272.75;;;11.94;57.19
68654;BME280;55636;51.108;13.622;2022-09-27T04:07:46;98273.09;;;11.93;57.56
68654;BME280;55636;51.108;13.622;2022-09-27T04:08:51;98269.81;;;11.91;57.67
68654;BME280;55636;51.108;13.622;2022-09-27T04:09:55;98267.03;;;11.91;57.75
68654;BME280;55636;51.108;13.622;2022-09-27T04:10:58;98270.13;;;11.89;57.68
68654;BME280;55636;51.108;13.622;2022-09-27T04:12:00;98272.09;;;11.89;57.89
68654;BME280;55636;51.108;13.622;2022-09-27T04:13:04;98267.69;;;11.88;58.17
68654;BME280;55636;51.108;13.622;2022-09-27T04:14:12;98271.59;;;11.87;58.10
68654;BME280;55636;51.108;13.622;2022-09-27T04:15:37;98268.34;;;11.84;58.05
68654;BME280;55636;51.108;13.622;2022-09-27T04:17:17;98268.66;;;11.83;58.06
68654;BME280;55636;51.108;13.622;2022-09-27T04:18:43;98271.75;;;11.81;58.51
68654;BME280;55636;51.108;13.622;2022-09-27T04:20:11;98271.25;;;11.79;58.40
68654;BME280;55636;51.108;13.622;2022-09-27T04:21:16;98266.84;;;11.78;58.47
68654;BME280;55636;51.108;13.622;2022-09-27T04:22:24;98262.44;;;11.77;58.27
68654;BME280;55636;51.108;13.622;2022-09-27T04:23:26;98263.59;;;11.76;58.53
68654;BME280;55636;51.108;13.622;2022-09-27T04:24:31;98273.00;;;11.75;58.51
68654;BME280;55636;51.108;13.622;2022-09-27T04:25:57;98267.78;;;11.74;58.56
68654;BME280;55636;51.108;13.622;2022-09-27T04:27:22;98270.88;;;11.72;58.80
68654;BME280;55636;51.108;13.622;2022-09-27T04:28:25;98272.03;;;11.71;59.00
68654;BME280;55636;51.108;13.622;2022-09-27T04:29:28;98273.47;;;11.68;59.09
68654;BME280;55636;51.108;13.622;2022-09-27T04:30:36;98271.53;;;11.69;59.18
68654;BME280;55636;51.108;13.622;2022-09-27T04:31:47;98266.34;;;11.67;59.10
68654;BME280;55636;51.108;13.622;2022-09-27T04:33:05;98270.22;;;11.66;59.10
68654;BME280;55636;51.108;13.622;2022-09-27T04:34:33;98271.34;;;11.65;59.04
68654;BME280;55636;51.108;13.622;2022-09-27T04:35:57;98260.63;;;11.64;59.14
68654;BME280;55636;51.108;13.622;2022-09-27T04:37:33;98266.16;;;11.64;59.23
68654;BME280;55636;51.108;13.622;2022-09-27T04:38:37;98264.50;;;11.63;59.28
68654;BME280;55636;51.108;13.622;2022-09-27T04:39:41;98262.88;;;11.62;59.14
68654;BME280;55636;51.108;13.622;2022-09-27T04:40:44;98261.22;;;11.61;59.36
68654;BME280;55636;51.108;13.622;2022-09-27T04:41:46;98260.75;;;11.59;59.27
68654;BME280;55636;51.108;13.622;2022-09-27T04:42:49;98260.75;;;11.59;59.37
68654;BME280;55636;51.108;13.622;2022-09-27T04:43:52;98258.00;;;11.59;59.40
68654;BME280;55636;51.108;13.622;2022-09-27T04:45:00;98264.66;;;11.58;59.75
68654;BME280;55636;51.108;13.622;2022-09-27T04:46:03;98261.88;;;11.58;59.77
68654;BME280;55636;51.108;13.622;2022-09-27T04:47:06;98266.59;;;11.57;59.64
68654;BME280;55636;51.108;13.622;2022-09-27T04:48:28;98259.44;;;11.56;59.51
68654;BME280;55636;51.108;13.622;2022-09-27T04:49:31;98258.59;;;11.56;59.63
68654;BME280;55636;51.108;13.622;2022-09-27T04:50:33;98265.28;;;11.55;59.64
68654;BME280;55636;51.108;13.622;2022-09-27T04:51:38;98265.28;;;11.55;59.99
68654;BME280;55636;51.108;13.622;2022-09-27T04:52:40;98260.56;;;11.55;59.94
68654;BME280;55636;51.108;13.622;2022-09-27T04:53:43;98258.94;;;11.54;60.20
68654;BME280;55636;51.108;13.622;2022-09-27T04:54:46;98258.94;;;11.54;60.00
68654;BME280;55636;51.108;13.622;2022-09-27T04:55:49;98261.69;;;11.54;60.12
68654;BME280;55636;51.108;13.622;2022-09-27T04:56:53;98255.69;;;11.52;60.21
68654;BME280;55636;51.108;13.622;2022-09-27T04:57:55;98269.19;;;11.54;60.16
68654;BME280;55636;51.108;13.622;2022-09-27T04:58:57;98259.25;;;11.52;60.27
68654;BME280;55636;51.108;13.622;2022-09-27T05:00:00;98268.34;;;11.53;60.34
68654;BME280;55636;51.108;13.622;2022-09-27T05:01:04;98257.63;;;11.51;60.47
68654;BME280;55636;51.108;13.622;2022-09-27T05:02:28;98261.22;;;11.52;60.57
68654;BME280;55636;51.108;13.622;2022-09-27T05:03:49;98263.16;;;11.51;60.54
68654;BME280;55636;51.108;13.622;2022-09-27T05:04:56;98263.47;;;11.50;60.73
68654;BME280;55636;51.108;13.622;2022-09-27T05:06:05;98260.72;;;11.50;60.48
68654;BME280;55636;51.108;13.622;2022-09-27T05:07:07;98253.53;;;11.49;60.93
68654;BME280;55636;51.108;13.622;2022-09-27T05:08:16;98257.13;;;11.49;60.78
68654;BME280;55636;51.108;13.622;2022-09-27T05:09:47;98258.25;;;11.48;60.85
68654;BME280;55636;51.108;13.622;2022-09-27T05:10:49;98248.34;;;11.47;60.97
68654;BME280;55636;51.108;13.622;2022-09-27T05:11:52;98259.38;;;11.47;60.79
68654;BME280;55636;51.108;13.622;2022-09-27T05:13:20;98258.59;;;11.47;61.06
68654;BME280;55636;51.108;13.622;2022-09-27T05:14:24;98260.53;;;11.46;60.96
68654;BME280;55636;51.108;13.622;2022-09-27T05:15:49;98260.84;;;11.45;61.00
68654;BME280;55636;51.108;13.622;2022-09-27T05:17:12;98256.94;;;11.46;60.91
68654;BME280;55636;51.108;13.622;2022-09-27T05:18:17;98265.25;;;11.46;61.04
68654;BME280;55636;51.108;13.622;2022-09-27T05:19:40;98264.44;;;11.45;61.05
68654;BME280;55636;51.108;13.622;2022-09-27T05:21:01;98260.03;;;11.44;61.09
68654;BME280;55636;51.108;13.622;2022-09-27T05:22:23;98258.06;;;11.45;61.07
68654;BME280;55636;51.108;13.622;2022-09-27T05:23:25;98257.28;;;11.44;61.02
68654;BME280;55636;51.108;13.622;2022-09-27T05:24:28;98260.03;;;11.44;61.32
68654;BME280;55636;51.108;13.622;2022-09-27T05:25:31;98260.34;;;11.43;61.27
68654;BME280;55636;51.108;13.622;2022-09-27T05:26:34;98263.09;;;11.43;61.27
68654;BME280;55636;51.108;13.622;2022-09-27T05:27:36;98259.50;;;11.42;61.27
68654;BME280;55636;51.108;13.622;2022-09-27T05:28:38;98260.34;;;11.43;61.35
68654;BME280;55636;51.108;13.622;2022-09-27T05:29:44;98262.25;;;11.42;61.41
68654;BME280;55636;51.108;13.622;2022-09-27T05:30:53;98256.72;;;11.42;61.51
68654;BME280;55636;51.108;13.622;2022-09-27T05:31:56;98253.97;;;11.42;61.66
68654;BME280;55636;51.108;13.622;2022-09-27T05:32:58;98257.84;;;11.41;61.52
68654;BME280;55636;51.108;13.622;2022-09-27T05:34:00;98246.81;;;11.41;61.46
68654;BME280;55636;51.108;13.622;2022-09-27T05:35:11;98259.50;;;11.42;61.56
68654;BME280;55636;51.108;13.622;2022-09-27T05:36:15;98253.16;;;11.42;61.56
68654;BME280;55636;51.108;13.622;2022-09-27T05:37:17;98251.19;;;11.42;61.80
68654;BME280;55636;51.108;13.622;2022-09-27T05:38:22;98254.81;;;11.43;61.64
68654;BME280;55636;51.108;13.622;2022-09-27T05:39:26;98259.50;;;11.42;61.56
68654;BME280;55636;51.108;13.622;2022-09-27T05:40:28;98254.81;;;11.43;61.53
68654;BME280;55636;51.108;13.622;2022-09-27T05:41:45;98253.69;;;11.44;61.79
68654;BME280;55636;51.108;13.622;2022-09-27T05:42:47;98252.84;;;11.43;61.71
68654;BME280;55636;51.108;13.622;2022-09-27T05:43:51;98250.91;;;11.44;61.58
68654;BME280;55636;51.108;13.622;2022-09-27T05:44:53;98257.28;;;11.44;61.62
68654;BME280;55636;51.108;13.622;2022-09-27T05:45:55;98258.06;;;11.45;61.88
68654;BME280;55636;51.108;13.622;2022-09-27T05:47:01;98253.69;;;11.44;61.80
68654;BME280;55636;51.108;13.622;2022-09-27T05:48:09;98250.06;;;11.43;61.75
68654;BME280;55636;51.108;13.622;2022-09-27T05:49:18;98256.44;;;11.44;61.68
68654;BME280;55636;51.108;13.622;2022-09-27T05:50:23;98253.38;;;11.45;61.90
68654;BME280;55636;51.108;13.622;2022-09-27T05:51:25;98251.75;;;11.44;61.70
68654;BME280;55636;51.108;13.622;2022-09-27T05:52:27;98257.28;;;11.44;61.83
68654;BME280;55636;51.108;13.622;2022-09-27T05:53:30;98249.78;;;11.45;61.81
68654;BME280;55636;51.108;13.622;2022-09-27T05:54:34;98258.91;;;11.45;61.87
68654;BME280;55636;51.108;13.622;2022-09-27T05:55:36;98250.28;;;11.47;61.89
68654;BME280;55636;51.108;13.622;2022-09-27T05:56:39;98249.78;;;11.45;61.81
68654;BME280;55636;51.108;13.622;2022-09-27T05:57:58;98255.00;;;11.46;61.89
68654;BME280;55636;51.108;13.622;2022-09-27T05:59:13;98255.00;;;11.46;61.88
68654;BME280;55636;51.108;13.622;2022-09-27T06:00:51;98256.63;;;11.47;61.83
68654;BME280;55636;51.108;13.622;2022-09-27T06:02:11;98256.94;;;11.46;61.88
68654;BME280;55636;51.108;13.622;2022-09-27T06:03:33;98255.50;;;11.48;62.00
68654;BME280;55636;51.108;13.622;2022-09-27T06:05:14;98254.69;;;11.48;62.20
68654;BME280;55636;51.108;13.622;2022-09-27T06:06:35;98259.91;;;11.49;62.20
68654;BME280;55636;51.108;13.622;2022-09-27T06:07:38;98259.06;;;11.49;62.31
68654;BME280;55636;51.108;13.622;2022-09-27T06:08:52;98255.19;;;11.50;62.34
68654;BME280;55636;51.108;13.622;2022-09-27T06:09:57;98263.47;;;11.50;62.39
68654;BME280;55636;51.108;13.622;2022-09-27T06:11:01;98260.72;;;11.50;62.40
68654;BME280;55636;51.108;13.622;2022-09-27T06:12:07;98254.06;;;11.51;62.46
68654;BME280;55636;51.108;13.622;2022-09-27T06:13:14;98263.16;;;11.51;62.49
68654;BME280;55636;51.108;13.622;2022-09-27T06:14:17;98261.22;;;11.52;62.49
68654;BME280;55636;51.108;13.622;2022-09-27T06:15:30;98252.59;;;11.54;62.49
68654;BME280;55636;51.108;13.622;2022-09-27T06:16:32;98253.41;;;11.54;62.65
68654;BME280;55636;51.108;13.622;2022-09-27T06:17:35;98259.75;;;11.55;62.80
68654;BME280;55636;51.108;13.622;2022-09-27T06:18:45;98255.84;;;11.56;62.68
68654;BME280;55636;51.108;13.622;2022-09-27T06:19:48;98256.69;;;11.56;62.75
68654;BME280;55636;51.108;13.622;2022-09-27T06:20:50;98256.69;;;11.56;62.73
68654;BME280;55636;51.108;13.622;2022-09-27T06:21:53;98259.13;;;11.58;62.57
68654;BME280;55636;51.108;13.622;2022-09-27T06:23:02;98254.09;;;11.60;62.87
68654;BME280;55636;51.108;13.622;2022-09-27T06:24:05;98252.13;;;11.60;62.72
68654;BME280;55636;51.108;13.622;2022-09-27T06:25:09;98254.91;;;11.60;62.91
68654;BME280;55636;51.108;13.622;2022-09-27T06:26:24;98254.25;;;11.63;62.84
68654;BME280;55636;51.108;13.622;2022-09-27T06:27:48;98262.53;;;11.63;62.76
68654;BME280;55636;51.108;13.622;2022-09-27T06:28:59;98258.66;;;11.64;62.58
68654;BME280;55636;51.108;13.622;2022-09-27T06:30:01;98252.81;;;11.66;62.59
68654;BME280;55636;51.108;13.622;2022-09-27T06:31:16;98256.41;;;11.66;62.65
68654;BME280;55636;51.108;13.622;2022-09-27T06:32:25;98256.88;;;11.68;62.32